N31CV KPIE-KFLL
Flight info
| Callsign | N31CV |
|---|---|
| Flight time | N/A |
| Altitude | 25000 |
| Route | SABEE TEEKY4 |
| Aircraft | HDJT/L-SABDGRWY/H |
Departure
| Time | 2026-04-24 17:07 |
|---|---|
| Airport | St. Petersburg Clearwater International Airport (KPIE) |
Arrival
| Time | N/A |
|---|---|
| Airport | Fort Lauderdale Hollywood International Airport (KFLL) |
| Time | Latitude | Longitude | Altitude | Speed | Heading |
|---|---|---|---|---|---|
| 2026-04-24 16:56 | 27.90292 | -82.68961 | 15 ft | 0 kts | 260° |
| 2026-04-24 17:02 | 27.90292 | -82.68963 | 33 ft | 0 kts | 260° |
| 2026-04-24 17:02 | 27.90302 | -82.68978 | 15 ft | 4 kts | 353° |
| 2026-04-24 17:02 | 27.90330 | -82.68961 | 15 ft | 5 kts | 25° |
| 2026-04-24 17:03 | 27.90361 | -82.68936 | 16 ft | 6 kts | 67° |
| 2026-04-24 17:03 | 27.90344 | -82.68885 | 15 ft | 10 kts | 168° |
| 2026-04-24 17:03 | 27.90270 | -82.68872 | 15 ft | 10 kts | 171° |
| 2026-04-24 17:04 | 27.90205 | -82.68861 | 15 ft | 7 kts | 175° |
| 2026-04-24 17:04 | 27.90164 | -82.68860 | 14 ft | 8 kts | 178° |
| 2026-04-24 17:04 | 27.90085 | -82.68860 | 11 ft | 15 kts | 185° |
| 2026-04-24 17:05 | 27.89963 | -82.68869 | 8 ft | 18 kts | 178° |
| 2026-04-24 17:05 | 27.89880 | -82.68857 | 10 ft | 12 kts | 171° |
| 2026-04-24 17:05 | 27.89705 | -82.68820 | 12 ft | 13 kts | 145° |
| 2026-04-24 17:06 | 27.89692 | -82.68728 | 11 ft | 13 kts | 83° |
| 2026-04-24 17:06 | 27.89740 | -82.68623 | 9 ft | 11 kts | 2° |
| 2026-04-24 17:06 | 27.90267 | -82.68713 | 16 ft | 115 kts | 351° |
| 2026-04-24 17:07 | 27.90863 | -82.68819 | 179 ft | 135 kts | 352° |
| 2026-04-24 17:07 | 27.91799 | -82.69036 | 780 ft | 140 kts | 349° |
| 2026-04-24 17:07 | 27.94030 | -82.69599 | 1709 ft | 192 kts | 349° |
| 2026-04-24 17:08 | 27.96872 | -82.70278 | 2667 ft | 223 kts | 351° |
| 2026-04-24 17:08 | 27.98471 | -82.70189 | 2991 ft | 245 kts | 20° |
| 2026-04-24 17:08 | 28.00126 | -82.69424 | 2965 ft | 266 kts | 26° |
| 2026-04-24 17:09 | 28.03490 | -82.67673 | 2986 ft | 266 kts | 26° |
| 2026-04-24 17:09 | 28.06382 | -82.65442 | 2972 ft | 229 kts | 63° |
| 2026-04-24 17:10 | 28.06574 | -82.64953 | 3039 ft | 225 kts | 73° |
| 2026-04-24 17:10 | 28.05577 | -82.60538 | 5046 ft | 218 kts | 130° |
| 2026-04-24 17:11 | 28.02063 | -82.60192 | 8121 ft | 152 kts | 199° |
| 2026-04-24 17:12 | 27.95588 | -82.57133 | 10377 ft | 249 kts | 160° |